createdAt,value
2024-02-16T00:00:10.829Z,70.74
2024-02-16T00:01:10.827Z,69.60
2024-02-16T00:02:10.756Z,68.39
2024-02-16T00:03:10.786Z,70.65
2024-02-16T00:04:10.843Z,68.99
2024-02-16T00:05:10.806Z,71.50
2024-02-16T00:06:10.838Z,69.00
2024-02-16T00:07:10.912Z,70.07
2024-02-16T00:08:10.772Z,68.75
2024-02-16T00:09:10.795Z,69.71
2024-02-16T00:10:10.818Z,69.96
2024-02-16T00:11:10.795Z,70.59
2024-02-16T00:12:10.825Z,68.81
2024-02-16T00:13:10.832Z,67.68
2024-02-16T00:14:10.812Z,70.34
2024-02-16T00:15:10.833Z,69.83
2024-02-16T00:16:10.785Z,66.28
2024-02-16T00:17:10.795Z,69.70
2024-02-16T00:18:10.852Z,69.02
2024-02-16T00:19:10.873Z,70.29
2024-02-16T00:20:10.860Z,70.33
2024-02-16T00:21:10.827Z,66.40
2024-02-16T00:22:10.845Z,69.46
2024-02-16T00:23:10.797Z,66.99
2024-02-16T00:24:10.837Z,68.85
2024-02-16T00:25:10.808Z,68.32
2024-02-16T00:26:10.825Z,68.79
2024-02-16T00:27:10.825Z,69.50
2024-02-16T00:28:10.867Z,69.38
2024-02-16T00:29:10.809Z,66.57
2024-02-16T00:30:10.838Z,67.82
2024-02-16T00:31:10.863Z,70.08
2024-02-16T00:32:10.821Z,69.30
2024-02-16T00:33:10.868Z,69.44
2024-02-16T00:34:10.892Z,63.92
2024-02-16T00:35:10.874Z,68.51
2024-02-16T00:36:10.948Z,68.01
2024-02-16T00:37:10.844Z,67.44
2024-02-16T00:38:10.818Z,65.55
2024-02-16T00:39:10.888Z,68.37
2024-02-16T00:40:10.852Z,66.17
2024-02-16T00:41:10.825Z,67.97
2024-02-16T00:42:11.013Z,69.26
2024-02-16T00:43:10.832Z,64.78
2024-02-16T00:44:10.832Z,67.63
2024-02-16T00:45:10.889Z,68.60
2024-02-16T00:46:10.843Z,68.45
2024-02-16T00:47:10.841Z,67.53
2024-02-16T00:48:10.946Z,66.25
2024-02-16T00:49:10.931Z,68.55
2024-02-16T00:50:11.003Z,67.59
2024-02-16T00:51:10.971Z,68.39
2024-02-16T00:52:11.484Z,67.57
2024-02-16T00:53:11.027Z,68.19
2024-02-16T00:54:11.114Z,66.28
2024-02-16T00:55:11.353Z,66.68
2024-02-16T00:56:11.155Z,68.55
2024-02-16T00:57:11.272Z,67.66
2024-02-16T00:58:11.262Z,68.13
2024-02-16T00:59:11.302Z,68.44
2024-02-16T01:00:11.532Z,67.12
2024-02-16T01:01:11.406Z,64.29
2024-02-16T01:02:11.446Z,68.12
2024-02-16T01:03:11.483Z,68.41
2024-02-16T01:04:11.632Z,66.26
2024-02-16T01:05:11.952Z,66.08
2024-02-16T01:06:11.810Z,68.47
2024-02-16T01:07:11.736Z,64.81
2024-02-16T01:08:11.717Z,65.03
2024-02-16T01:09:11.796Z,65.82
2024-02-16T01:10:11.816Z,66.64
2024-02-16T01:11:11.905Z,68.06
2024-02-16T01:12:11.928Z,69.80
2024-02-16T01:13:11.945Z,64.67
2024-02-16T01:14:12.017Z,66.03
2024-02-16T01:15:12.120Z,65.67
2024-02-16T01:16:12.105Z,68.57
2024-02-16T01:17:12.172Z,69.43
2024-02-16T01:18:12.286Z,67.35
2024-02-16T01:19:12.306Z,66.08
2024-02-16T01:20:12.820Z,67.18
2024-02-16T01:21:12.430Z,67.03
2024-02-16T01:22:12.501Z,62.98
2024-02-16T01:23:12.488Z,64.57
2024-02-16T01:24:12.555Z,67.09
2024-02-16T01:25:12.784Z,67.01
2024-02-16T01:26:12.777Z,68.80
2024-02-16T01:27:12.862Z,65.44
2024-02-16T01:28:12.790Z,65.09
2024-02-16T01:29:12.905Z,67.78
2024-02-16T01:30:12.930Z,66.10
2024-02-16T01:31:13.025Z,66.36
2024-02-16T01:32:13.033Z,65.47
2024-02-16T01:33:13.187Z,64.66
2024-02-16T01:34:13.225Z,64.94
2024-02-16T01:35:13.238Z,65.84
2024-02-16T01:36:13.319Z,65.64
2024-02-16T01:37:13.335Z,66.39
2024-02-16T01:38:13.403Z,66.03
2024-02-16T01:39:13.507Z,67.27
2024-02-16T01:40:13.514Z,65.77
2024-02-16T01:41:13.561Z,65.43
2024-02-16T01:42:13.648Z,65.64
2024-02-16T01:43:13.678Z,65.69
2024-02-16T01:44:13.722Z,65.90
2024-02-16T01:45:13.837Z,66.99
2024-02-16T01:46:13.844Z,67.01
2024-02-16T01:47:13.883Z,63.32
2024-02-16T01:48:14.018Z,65.78
2024-02-16T01:49:14.044Z,65.37
2024-02-16T01:50:14.531Z,64.72
2024-02-16T01:51:14.140Z,67.08
2024-02-16T01:52:14.177Z,65.61
2024-02-16T01:53:14.237Z,67.17
2024-02-16T01:54:14.285Z,65.38
2024-02-16T01:55:14.343Z,64.27
2024-02-16T01:56:14.389Z,65.18
2024-02-16T01:57:14.500Z,64.67
2024-02-16T01:58:14.505Z,67.08
2024-02-16T01:59:14.560Z,64.61
2024-02-16T02:00:14.678Z,65.61
2024-02-16T02:01:14.688Z,63.18
2024-02-16T02:02:14.745Z,64.35
2024-02-16T02:03:14.813Z,63.84
2024-02-16T02:04:14.881Z,64.67
2024-02-16T02:05:15.010Z,63.61
2024-02-16T02:06:15.035Z,64.69
2024-02-16T02:07:15.065Z,63.71
2024-02-16T02:08:15.068Z,65.50
2024-02-16T02:09:15.138Z,64.33
2024-02-16T02:10:15.270Z,67.04
2024-02-16T02:11:15.300Z,65.31
2024-02-16T02:12:15.416Z,65.96
2024-02-16T02:13:15.378Z,65.02
2024-02-16T02:14:15.431Z,66.56
2024-02-16T02:15:15.540Z,62.83
2024-02-16T02:16:15.604Z,62.85
2024-02-16T02:17:15.679Z,64.08
2024-02-16T02:18:15.761Z,63.63
2024-02-16T02:19:15.868Z,65.85
2024-02-16T02:20:15.909Z,63.66
2024-02-16T02:21:15.982Z,63.80
2024-02-16T02:22:15.939Z,63.23
2024-02-16T02:23:16.025Z,65.13
2024-02-16T02:24:16.095Z,64.71
2024-02-16T02:25:16.146Z,62.08
2024-02-16T02:26:16.204Z,62.62
2024-02-16T02:27:16.309Z,65.82
2024-02-16T02:28:16.339Z,64.08
2024-02-16T02:29:16.396Z,65.54
2024-02-16T02:30:16.485Z,64.00
2024-02-16T02:31:16.501Z,64.20
2024-02-16T02:32:16.585Z,65.32
2024-02-16T02:33:16.855Z,62.07
2024-02-16T02:34:16.778Z,63.06
2024-02-16T02:35:16.757Z,62.72
2024-02-16T02:36:16.863Z,64.88
2024-02-16T02:37:16.895Z,64.53
2024-02-16T02:38:16.944Z,62.50
2024-02-16T02:39:17.079Z,63.03
2024-02-16T02:40:17.082Z,61.88
2024-02-16T02:41:17.141Z,62.22
2024-02-16T02:42:17.219Z,64.39
2024-02-16T02:43:17.286Z,63.80
2024-02-16T02:44:17.344Z,63.34
2024-02-16T02:45:17.437Z,63.40
2024-02-16T02:46:17.623Z,63.30
2024-02-16T02:47:17.553Z,60.52
2024-02-16T02:48:17.746Z,63.73
2024-02-16T02:49:17.756Z,62.63
2024-02-16T02:50:17.851Z,63.06
2024-02-16T02:51:17.875Z,61.65
2024-02-16T02:52:17.904Z,62.81
2024-02-16T02:53:17.983Z,64.00
2024-02-16T02:54:18.059Z,61.42
2024-02-16T02:55:18.101Z,61.98
2024-02-16T02:56:18.182Z,63.67
2024-02-16T02:57:18.318Z,62.86
2024-02-16T02:58:18.306Z,63.44
2024-02-16T02:59:18.398Z,63.45
2024-02-16T03:00:18.479Z,60.77
2024-02-16T03:01:18.559Z,64.28
2024-02-16T03:02:18.636Z,65.34
2024-02-16T03:03:18.733Z,62.37
2024-02-16T03:04:18.744Z,62.76
2024-02-16T03:05:18.875Z,60.88
2024-02-16T03:06:18.872Z,61.80
2024-02-16T03:07:18.950Z,61.43
2024-02-16T03:08:18.996Z,61.24
2024-02-16T03:09:19.054Z,59.71
2024-02-16T03:10:19.130Z,60.92
2024-02-16T03:11:19.226Z,63.26
2024-02-16T03:12:19.279Z,61.41
2024-02-16T03:13:19.409Z,61.24
2024-02-16T03:14:19.382Z,63.16
2024-02-16T03:15:19.546Z,61.45
2024-02-16T03:16:19.541Z,60.54
2024-02-16T03:17:19.620Z,61.77
2024-02-16T03:18:19.796Z,62.28
2024-02-16T03:19:19.891Z,60.77
2024-02-16T03:20:19.821Z,63.05
2024-02-16T03:21:19.933Z,59.83
2024-02-16T03:22:19.961Z,62.16
2024-02-16T03:23:20.037Z,63.18
2024-02-16T03:24:20.140Z,63.67
2024-02-16T03:25:20.172Z,63.66
2024-02-16T03:26:20.258Z,62.11
2024-02-16T03:27:20.420Z,62.55
2024-02-16T03:28:20.401Z,61.29
2024-02-16T03:29:20.489Z,59.70
2024-02-16T03:30:20.647Z,60.99
2024-02-16T03:31:20.639Z,61.38
2024-02-16T03:32:20.708Z,61.58
2024-02-16T03:33:20.819Z,59.05
2024-02-16T03:34:20.944Z,58.69
2024-02-16T03:35:25.949Z,61.40
2024-02-16T03:36:21.183Z,61.45
2024-02-16T03:37:20.905Z,61.45
2024-02-16T03:38:20.913Z,61.29
2024-02-16T03:39:20.977Z,61.71
2024-02-16T03:40:20.917Z,62.81
2024-02-16T03:41:20.972Z,62.41
2024-02-16T03:42:21.026Z,60.37
2024-02-16T03:43:21.084Z,61.66
2024-02-16T03:44:21.158Z,64.74
2024-02-16T03:45:21.313Z,61.34
2024-02-16T03:46:21.267Z,62.18
2024-02-16T03:47:21.327Z,61.34
2024-02-16T03:48:21.480Z,61.76
2024-02-16T03:49:21.593Z,62.32
2024-02-16T03:50:21.502Z,58.61
2024-02-16T03:51:21.605Z,62.46
2024-02-16T03:52:21.611Z,63.12
2024-02-16T03:53:21.688Z,60.47
2024-02-16T03:54:21.769Z,61.49
2024-02-16T03:55:21.775Z,62.30
2024-02-16T03:56:21.812Z,60.97
2024-02-16T03:57:21.947Z,59.91
2024-02-16T03:58:21.908Z,61.88
2024-02-16T03:59:21.977Z,60.15
2024-02-16T04:00:22.066Z,62.03
2024-02-16T04:01:22.111Z,57.89
2024-02-16T04:02:22.106Z,60.12
2024-02-16T04:03:22.251Z,59.13
2024-02-16T04:04:22.267Z,59.48
2024-02-16T04:05:22.244Z,60.72
2024-02-16T04:06:22.328Z,57.96
2024-02-16T04:07:22.386Z,59.55
2024-02-16T04:08:22.397Z,57.29
2024-02-16T04:09:22.471Z,58.06
2024-02-16T04:10:27.483Z,60.66
2024-02-16T04:11:22.536Z,60.68
2024-02-16T04:12:22.502Z,59.97
2024-02-16T04:13:22.476Z,60.95
2024-02-16T04:14:22.477Z,59.93
2024-02-16T04:15:27.568Z,60.67
2024-02-16T04:16:22.526Z,60.77
2024-02-16T04:17:22.493Z,59.13
2024-02-16T04:18:22.787Z,61.17
2024-02-16T04:19:22.600Z,60.50
2024-02-16T04:20:22.505Z,59.82
2024-02-16T04:21:22.594Z,59.18
2024-02-16T04:22:22.486Z,58.79
2024-02-16T04:23:22.501Z,60.22
2024-02-16T04:24:22.597Z,57.11
2024-02-16T04:25:22.552Z,59.06
2024-02-16T04:26:22.498Z,58.40
2024-02-16T04:27:22.606Z,59.87
2024-02-16T04:28:22.583Z,57.95
2024-02-16T04:29:22.638Z,58.03
2024-02-16T04:30:22.733Z,58.87
2024-02-16T04:31:22.740Z,60.45
2024-02-16T04:32:22.788Z,58.57
2024-02-16T04:33:22.896Z,59.75
2024-02-16T04:34:22.960Z,60.55
2024-02-16T04:35:22.928Z,57.38
2024-02-16T04:36:22.951Z,59.27
2024-02-16T04:37:22.935Z,58.79
2024-02-16T04:38:22.946Z,58.29
2024-02-16T04:39:23.047Z,57.95
2024-02-16T04:40:32.058Z,59.00
2024-02-16T04:41:22.996Z,59.17
2024-02-16T04:42:23.045Z,59.24
2024-02-16T04:43:23.001Z,59.82
2024-02-16T04:44:22.992Z,60.18
2024-02-16T04:45:23.022Z,58.36
2024-02-16T04:46:23.004Z,61.73
2024-02-16T04:47:23.022Z,60.67
2024-02-16T04:48:23.092Z,59.11
2024-02-16T04:49:23.116Z,59.18
2024-02-16T04:50:27.181Z,59.99
2024-02-16T04:51:23.061Z,60.09
2024-02-16T04:52:23.015Z,60.16
2024-02-16T04:53:23.062Z,60.26
2024-02-16T04:54:23.069Z,60.21
2024-02-16T04:55:30.402Z,50.00
2024-02-16T04:56:30.394Z,50.00
2024-02-16T04:57:30.509Z,50.00
2024-02-16T04:58:30.407Z,50.00
2024-02-16T04:59:30.415Z,50.00
2024-02-16T05:00:32.431Z,50.00
2024-02-16T05:01:30.577Z,52.84
2024-02-16T05:02:30.423Z,53.12
2024-02-16T05:03:30.476Z,52.35
2024-02-16T05:04:30.430Z,53.12
2024-02-16T05:05:30.492Z,52.49
2024-02-16T05:06:30.543Z,53.87
2024-02-16T05:07:30.417Z,50.84
2024-02-16T05:08:30.440Z,50.00
2024-02-16T05:09:30.460Z,54.52
2024-02-16T05:10:32.361Z,53.18
2024-02-16T05:11:30.467Z,51.31
2024-02-16T05:12:30.541Z,51.43
2024-02-16T05:13:30.432Z,54.73
2024-02-16T05:14:30.442Z,52.61
2024-02-16T05:15:30.448Z,52.42
2024-02-16T05:16:30.447Z,52.72
2024-02-16T05:17:30.452Z,52.08
2024-02-16T05:18:30.561Z,51.70
2024-02-16T05:19:30.470Z,54.13
2024-02-16T05:20:30.455Z,53.92
2024-02-16T05:21:30.599Z,54.72
2024-02-16T05:22:30.449Z,53.21
2024-02-16T05:23:30.445Z,53.10
2024-02-16T05:24:30.630Z,54.01
2024-02-16T05:25:32.372Z,53.83
2024-02-16T05:26:30.466Z,54.63
2024-02-16T05:27:30.535Z,52.74
2024-02-16T05:28:30.537Z,51.93
2024-02-16T05:29:30.455Z,53.06
2024-02-16T05:30:30.497Z,52.47
2024-02-16T05:31:30.459Z,52.93
2024-02-16T05:32:30.486Z,54.21
2024-02-16T05:33:30.634Z,53.29
2024-02-16T05:34:30.541Z,53.02
2024-02-16T05:35:30.478Z,51.44
2024-02-16T05:36:30.581Z,53.95
2024-02-16T05:37:30.471Z,51.23
2024-02-16T05:38:30.470Z,53.95
2024-02-16T05:39:30.544Z,53.54
2024-02-16T05:40:30.520Z,53.56
2024-02-16T05:41:30.488Z,54.87
2024-02-16T05:42:30.598Z,52.76
2024-02-16T05:43:30.477Z,52.81
2024-02-16T05:44:30.498Z,53.59
2024-02-16T05:45:30.551Z,54.66
2024-02-16T05:46:30.486Z,54.44
2024-02-16T05:47:30.518Z,54.25
2024-02-16T05:48:30.615Z,56.62
2024-02-16T05:49:30.542Z,54.33
2024-02-16T05:50:30.616Z,53.40
2024-02-16T05:51:30.519Z,54.49
2024-02-16T05:52:30.492Z,52.01
2024-02-16T05:53:30.502Z,52.03
2024-02-16T05:54:30.541Z,53.01
2024-02-16T05:55:32.876Z,53.62
2024-02-16T05:56:30.523Z,53.24
2024-02-16T05:57:30.657Z,52.47
2024-02-16T05:58:30.509Z,54.45
2024-02-16T05:59:30.496Z,54.99
2024-02-16T06:00:40.608Z,53.48
2024-02-16T06:01:30.523Z,53.66
2024-02-16T06:02:30.521Z,54.27
2024-02-16T06:03:30.590Z,54.65
2024-02-16T06:04:30.600Z,55.51
2024-02-16T06:05:30.504Z,54.91
2024-02-16T06:06:30.576Z,56.20
2024-02-16T06:07:30.564Z,53.12
2024-02-16T06:08:31.028Z,52.58
2024-02-16T06:09:30.637Z,53.42
2024-02-16T06:10:30.540Z,53.44
2024-02-16T06:11:30.581Z,55.24
2024-02-16T06:12:30.618Z,54.95
2024-02-16T06:13:30.571Z,54.13
2024-02-16T06:14:30.533Z,54.96
2024-02-16T06:15:30.549Z,53.38
2024-02-16T06:16:30.529Z,53.06
2024-02-16T06:17:30.579Z,52.68
2024-02-16T06:18:30.632Z,54.41
2024-02-16T06:19:30.664Z,52.29
2024-02-16T06:20:30.540Z,54.23
2024-02-16T06:21:30.622Z,52.75
2024-02-16T06:22:30.525Z,53.96
2024-02-16T06:23:30.528Z,53.53
2024-02-16T06:24:30.609Z,54.40
2024-02-16T06:25:30.604Z,55.28
2024-02-16T06:26:30.544Z,54.17
2024-02-16T06:27:30.571Z,53.17
2024-02-16T06:28:30.548Z,54.85
2024-02-16T06:29:30.531Z,54.25
2024-02-16T06:30:30.606Z,53.79
2024-02-16T06:31:30.544Z,55.19
2024-02-16T06:32:30.579Z,55.32
2024-02-16T06:33:30.674Z,53.83
2024-02-16T06:34:30.700Z,52.89
2024-02-16T06:35:30.577Z,54.35
2024-02-16T06:36:30.724Z,53.32
2024-02-16T06:37:30.555Z,54.65
2024-02-16T06:38:30.569Z,54.53
2024-02-16T06:39:30.560Z,53.50
2024-02-16T06:40:35.562Z,54.90
2024-02-16T06:41:30.563Z,54.97
2024-02-16T06:42:30.654Z,55.16
2024-02-16T06:43:30.563Z,52.93
2024-02-16T06:44:30.567Z,53.59
2024-02-16T06:45:35.640Z,51.65
2024-02-16T06:46:30.579Z,55.05
2024-02-16T06:47:30.626Z,55.11
2024-02-16T06:48:30.679Z,54.12
2024-02-16T06:49:30.570Z,53.59
2024-02-16T06:50:30.620Z,54.69
2024-02-16T06:51:30.607Z,53.70
2024-02-16T06:52:30.595Z,53.13
2024-02-16T06:53:30.589Z,54.65
2024-02-16T06:54:30.633Z,55.45
2024-02-16T06:55:30.602Z,51.61
2024-02-16T06:56:30.610Z,53.93
2024-02-16T06:57:30.607Z,53.01
2024-02-16T06:58:30.591Z,51.76
2024-02-16T06:59:30.605Z,54.41
2024-02-16T07:00:30.665Z,50.82
2024-02-16T07:01:30.610Z,52.07
2024-02-16T07:02:30.586Z,53.31
2024-02-16T07:03:30.702Z,53.34
2024-02-16T07:04:30.633Z,52.91
2024-02-16T07:05:33.035Z,52.63
2024-02-16T07:06:30.659Z,53.48
2024-02-16T07:07:30.651Z,53.67
2024-02-16T07:08:30.593Z,53.65
2024-02-16T07:09:30.706Z,52.79
2024-02-16T07:10:30.617Z,50.33
2024-02-16T07:11:30.684Z,53.21
2024-02-16T07:12:30.652Z,53.73
2024-02-16T07:13:30.601Z,54.56
2024-02-16T07:14:30.607Z,51.54
2024-02-16T07:15:30.658Z,54.29
2024-02-16T07:16:30.606Z,54.46
2024-02-16T07:17:30.610Z,53.59
2024-02-16T07:18:30.677Z,54.23
2024-02-16T07:19:30.764Z,53.03
2024-02-16T07:20:30.614Z,53.97
2024-02-16T07:21:30.691Z,53.52
2024-02-16T07:22:30.615Z,53.12
2024-02-16T07:23:30.615Z,52.83
2024-02-16T07:24:30.648Z,51.71
2024-02-16T07:25:30.601Z,54.07
2024-02-16T07:26:30.611Z,53.13
2024-02-16T07:27:30.673Z,51.89
2024-02-16T07:28:30.617Z,51.82
2024-02-16T07:29:30.626Z,50.00
2024-02-16T07:30:39.605Z,52.71
2024-02-16T07:31:31.622Z,52.76
2024-02-16T07:32:30.661Z,53.40
2024-02-16T07:33:31.135Z,53.28
2024-02-16T07:34:30.763Z,55.49
2024-02-16T07:35:30.631Z,55.21
2024-02-16T07:36:30.766Z,54.32
2024-02-16T07:37:30.644Z,54.59
2024-02-16T07:38:30.653Z,54.00
2024-02-16T07:39:30.663Z,52.53
2024-02-16T07:40:30.679Z,52.42
2024-02-16T07:41:30.702Z,52.20
2024-02-16T07:42:30.796Z,54.75
2024-02-16T07:43:30.807Z,54.57
2024-02-16T07:44:30.858Z,54.72
2024-02-16T07:45:30.948Z,52.99
2024-02-16T07:46:34.059Z,52.99
2024-02-16T07:47:31.125Z,53.11
2024-02-16T07:48:31.063Z,53.05
2024-02-16T07:49:31.164Z,53.15
2024-02-16T07:50:30.948Z,52.71
2024-02-16T07:51:30.979Z,52.03
2024-02-16T07:52:30.967Z,52.10
2024-02-16T07:53:30.952Z,52.04
2024-02-16T07:54:30.996Z,53.29
2024-02-16T07:55:30.970Z,52.30
2024-02-16T07:56:30.973Z,52.20
2024-02-16T07:57:31.003Z,53.04
2024-02-16T07:58:30.977Z,54.12
2024-02-16T07:59:30.975Z,52.62
2024-02-16T08:00:31.061Z,52.87
2024-02-16T08:01:31.026Z,53.59
2024-02-16T08:02:30.979Z,54.40
2024-02-16T08:03:31.025Z,54.86
2024-02-16T08:04:30.999Z,56.62
2024-02-16T08:05:31.013Z,56.22
2024-02-16T08:06:31.095Z,57.46
2024-02-16T08:07:31.049Z,57.91
2024-02-16T08:08:31.016Z,57.69
2024-02-16T08:09:31.145Z,58.28
2024-02-16T08:10:31.087Z,56.60
2024-02-16T08:11:31.267Z,55.20
2024-02-16T08:12:31.141Z,56.62
2024-02-16T08:13:31.149Z,56.30
2024-02-16T08:14:31.161Z,56.08
2024-02-16T08:15:31.191Z,55.21
2024-02-16T08:16:31.197Z,55.78
2024-02-16T08:17:31.238Z,54.06
2024-02-16T08:18:31.425Z,55.96
2024-02-16T08:19:31.355Z,57.55
2024-02-16T08:20:31.300Z,56.05
2024-02-16T08:21:31.362Z,56.13
2024-02-16T08:22:31.374Z,57.01
2024-02-16T08:23:31.429Z,56.96
2024-02-16T08:24:31.551Z,56.72
2024-02-16T08:25:31.606Z,54.51
2024-02-16T08:26:31.631Z,55.96
2024-02-16T08:27:31.686Z,55.93
2024-02-16T08:28:31.725Z,55.76
2024-02-16T08:29:31.774Z,53.69
2024-02-16T08:30:31.898Z,55.74
2024-02-16T08:31:31.883Z,56.83
2024-02-16T08:32:31.908Z,56.57
2024-02-16T08:33:32.000Z,57.53
2024-02-16T08:34:32.035Z,55.26
2024-02-16T08:35:32.021Z,57.11
2024-02-16T08:36:32.108Z,56.54
2024-02-16T08:37:32.154Z,56.34
2024-02-16T08:38:32.090Z,56.66
2024-02-16T08:39:32.213Z,57.62
2024-02-16T08:40:32.156Z,57.75
2024-02-16T08:41:32.192Z,59.12
2024-02-16T08:42:32.232Z,61.30
2024-02-16T08:43:32.252Z,59.40
2024-02-16T08:44:32.245Z,60.48
2024-02-16T08:45:32.317Z,61.43
2024-02-16T08:46:32.295Z,60.62
2024-02-16T08:47:32.408Z,59.52
2024-02-16T08:48:32.450Z,59.03
2024-02-16T08:49:32.440Z,61.53
2024-02-16T08:50:32.373Z,57.74
2024-02-16T08:51:32.544Z,58.65
2024-02-16T08:52:32.430Z,56.81
2024-02-16T08:53:32.461Z,58.53
2024-02-16T08:54:32.514Z,61.39
2024-02-16T08:55:32.478Z,63.37
2024-02-16T08:56:32.476Z,64.94
2024-02-16T08:57:32.622Z,67.39
2024-02-16T08:58:32.593Z,68.53
2024-02-16T08:59:32.661Z,69.89
2024-02-16T09:00:32.809Z,72.16
2024-02-16T09:01:32.848Z,75.30
2024-02-16T09:02:32.822Z,76.39
2024-02-16T09:03:32.954Z,75.84
2024-02-16T09:04:32.961Z,78.40
2024-02-16T09:05:33.046Z,71.79
2024-02-16T09:06:33.144Z,77.69
2024-02-16T09:07:33.092Z,76.07
2024-02-16T09:08:33.111Z,83.45
2024-02-16T09:09:33.195Z,90.27
2024-02-16T09:10:33.181Z,92.62
2024-02-16T09:11:33.291Z,88.87
2024-02-16T09:12:33.411Z,86.16
2024-02-16T09:13:34.177Z,83.00
2024-02-16T09:14:33.413Z,79.61
2024-02-16T09:15:33.536Z,76.22
2024-02-16T09:16:33.536Z,74.50
2024-02-16T09:17:33.723Z,72.21
2024-02-16T09:18:33.774Z,68.92
2024-02-16T09:19:33.775Z,66.24
2024-02-16T09:20:33.762Z,62.62
2024-02-16T09:21:33.862Z,62.48
2024-02-16T09:23:33.821Z,57.54
2024-02-16T09:24:33.932Z,57.38
2024-02-16T09:25:33.794Z,56.02
2024-02-16T09:26:33.902Z,54.90
2024-02-16T09:27:33.829Z,53.90
2024-02-16T09:28:33.805Z,52.32
2024-02-16T09:29:33.805Z,49.61
2024-02-16T09:30:33.814Z,52.33
2024-02-16T09:31:41.110Z,50.00
2024-02-16T09:32:41.136Z,50.00
2024-02-16T09:33:41.161Z,50.00
2024-02-16T09:34:43.492Z,50.00
2024-02-16T09:35:41.101Z,50.00
2024-02-16T09:36:41.138Z,50.00
2024-02-16T09:37:41.112Z,50.00
2024-02-16T09:38:41.126Z,50.00
2024-02-16T09:39:41.120Z,50.00
2024-02-16T09:40:41.103Z,50.68
2024-02-16T09:41:41.109Z,50.79
2024-02-16T09:42:41.157Z,53.62
2024-02-16T09:43:41.128Z,50.06
2024-02-16T09:44:41.121Z,53.64
2024-02-16T09:45:41.164Z,51.16
2024-02-16T09:46:41.133Z,50.00
2024-02-16T09:47:42.857Z,53.62
2024-02-16T09:48:41.320Z,53.72
2024-02-16T09:49:41.660Z,53.86
2024-02-16T09:50:41.212Z,54.29
2024-02-16T09:51:41.115Z,54.17
2024-02-16T09:52:41.114Z,55.98
2024-02-16T09:53:41.115Z,51.52
2024-02-16T09:54:41.294Z,50.23
2024-02-16T09:55:41.121Z,53.89
2024-02-16T09:56:41.119Z,53.01
2024-02-16T09:57:41.123Z,54.52
2024-02-16T09:58:41.132Z,56.69
2024-02-16T09:59:41.124Z,60.57
2024-02-16T10:00:41.259Z,65.05
2024-02-16T10:01:41.166Z,69.30
2024-02-16T10:02:41.132Z,74.27
2024-02-16T10:03:41.138Z,74.21
2024-02-16T10:04:41.175Z,73.33
2024-02-16T10:05:41.206Z,73.22
2024-02-16T10:06:41.210Z,70.56
2024-02-16T10:07:41.267Z,67.47
2024-02-16T10:08:41.145Z,66.85
2024-02-16T10:09:41.666Z,68.42
2024-02-16T10:10:41.141Z,64.99
2024-02-16T10:11:41.197Z,64.27
2024-02-16T10:12:41.175Z,65.72
2024-02-16T10:13:41.160Z,65.52
2024-02-16T10:14:41.158Z,66.59
2024-02-16T10:15:41.201Z,66.18
2024-02-16T10:16:41.145Z,68.02
2024-02-16T10:17:41.161Z,69.63
2024-02-16T10:18:41.454Z,69.99
2024-02-16T10:19:42.443Z,69.21
2024-02-16T10:20:41.172Z,67.96
2024-02-16T10:21:41.238Z,66.28
2024-02-16T10:22:48.295Z,68.38
2024-02-16T10:23:44.268Z,68.42
2024-02-16T10:24:41.696Z,68.81
2024-02-16T10:25:41.282Z,69.74
2024-02-16T10:26:41.264Z,74.20
2024-02-16T10:27:41.287Z,79.34
2024-02-16T10:28:41.285Z,80.02
2024-02-16T10:29:41.266Z,77.20
2024-02-16T10:30:41.424Z,78.41
2024-02-16T10:31:41.275Z,75.20
2024-02-16T10:32:41.305Z,72.56
2024-02-16T10:33:41.367Z,72.86
2024-02-16T10:34:41.447Z,71.63
2024-02-16T10:35:41.293Z,73.27
2024-02-16T10:36:41.367Z,71.08
2024-02-16T10:37:41.283Z,74.39
2024-02-16T10:38:41.286Z,76.91
2024-02-16T10:39:41.306Z,75.17
2024-02-16T10:40:41.294Z,74.45
2024-02-16T10:41:41.292Z,74.82
2024-02-16T10:42:41.369Z,72.77
2024-02-16T10:43:41.280Z,71.98
2024-02-16T10:44:41.297Z,71.93
2024-02-16T10:45:41.466Z,70.96
2024-02-16T10:46:41.303Z,71.10
2024-02-16T10:47:41.319Z,70.74
2024-02-16T10:48:41.460Z,71.95
2024-02-16T10:49:41.366Z,68.56
2024-02-16T10:50:41.384Z,68.38
2024-02-16T10:51:41.347Z,64.87
2024-02-16T10:52:41.306Z,64.99
2024-02-16T10:53:41.296Z,64.38
2024-02-16T10:54:41.451Z,64.36
2024-02-16T10:55:41.291Z,60.25
2024-02-16T10:56:41.332Z,59.84
2024-02-16T10:57:41.380Z,60.17
2024-02-16T10:58:41.324Z,59.09
2024-02-16T10:59:41.315Z,59.38
2024-02-16T11:00:43.519Z,60.52
2024-02-16T11:01:41.403Z,56.56
2024-02-16T11:02:41.410Z,58.05
2024-02-16T11:03:41.545Z,58.83
2024-02-16T11:04:41.804Z,58.49
2024-02-16T11:05:41.669Z,56.19
2024-02-16T11:06:41.752Z,56.35
2024-02-16T11:07:41.790Z,56.81
2024-02-16T11:08:41.757Z,56.56
2024-02-16T11:09:41.837Z,55.22
2024-02-16T11:10:41.894Z,57.01
2024-02-16T11:11:41.928Z,56.47
2024-02-16T11:12:42.001Z,55.55
2024-02-16T11:13:42.022Z,56.04
2024-02-16T11:14:42.091Z,57.60
2024-02-16T11:15:42.175Z,54.80
2024-02-16T11:16:42.205Z,55.69
2024-02-16T11:17:42.298Z,53.79
2024-02-16T11:18:42.462Z,56.41
2024-02-16T11:19:42.479Z,56.44
2024-02-16T11:20:42.419Z,56.12
2024-02-16T11:21:42.595Z,57.92
2024-02-16T11:22:42.526Z,58.60
2024-02-16T11:23:42.571Z,57.61
2024-02-16T11:24:42.658Z,57.64
2024-02-16T11:25:42.692Z,57.83
2024-02-16T11:26:42.744Z,56.20
2024-02-16T11:27:42.942Z,54.69
2024-02-16T11:28:42.854Z,56.68
2024-02-16T11:29:42.883Z,56.55
2024-02-16T11:30:43.072Z,58.31
2024-02-16T11:31:43.069Z,57.30
2024-02-16T11:32:43.057Z,57.66
2024-02-16T11:33:43.225Z,55.58
2024-02-16T11:34:43.354Z,56.78
2024-02-16T11:35:43.206Z,56.76
2024-02-16T11:36:43.363Z,59.00
2024-02-16T11:37:43.285Z,57.15
2024-02-16T11:38:43.348Z,58.46
2024-02-16T11:39:43.438Z,56.77
2024-02-16T11:40:43.446Z,59.26
2024-02-16T11:41:43.489Z,58.23
2024-02-16T11:42:43.570Z,57.54
2024-02-16T11:43:43.547Z,59.55
2024-02-16T11:44:43.593Z,59.69
2024-02-16T11:45:43.733Z,58.52
2024-02-16T11:46:43.669Z,59.77
2024-02-16T11:47:43.772Z,60.92
2024-02-16T11:48:44.070Z,59.67
2024-02-16T11:49:43.932Z,60.35
2024-02-16T11:50:43.831Z,61.04
2024-02-16T11:51:43.870Z,59.14
2024-02-16T11:52:43.875Z,60.89
2024-02-16T11:53:43.910Z,60.60
2024-02-16T11:54:44.002Z,60.82
2024-02-16T11:55:44.081Z,61.41
2024-02-16T11:56:44.037Z,62.69
2024-02-16T11:57:44.248Z,60.45
2024-02-16T11:58:44.093Z,61.49
2024-02-16T11:59:44.045Z,58.58
2024-02-16T12:00:44.245Z,62.09
2024-02-16T12:01:44.208Z,60.66
2024-02-16T12:02:44.132Z,62.73
2024-02-16T12:03:44.233Z,61.32
2024-02-16T12:04:51.453Z,62.44
2024-02-16T12:05:45.195Z,62.50
2024-02-16T12:07:44.463Z,62.58
2024-02-16T12:08:44.251Z,62.99
2024-02-16T12:09:44.251Z,62.53
2024-02-16T12:10:44.173Z,62.92
2024-02-16T12:11:44.231Z,62.80
2024-02-16T12:12:44.579Z,62.65
2024-02-16T12:13:44.242Z,63.16
2024-02-16T12:14:44.201Z,61.69
2024-02-16T12:15:44.300Z,65.49
2024-02-16T12:16:54.214Z,63.75
2024-02-16T12:17:44.525Z,63.95
2024-02-16T12:18:44.467Z,64.49
2024-02-16T12:19:44.323Z,65.36
2024-02-16T12:20:44.171Z,66.37
2024-02-16T12:21:44.242Z,65.38
2024-02-16T12:22:44.310Z,66.50
2024-02-16T12:23:44.210Z,66.48
2024-02-16T12:24:44.280Z,65.99
2024-02-16T12:25:44.186Z,65.28
2024-02-16T12:26:44.205Z,66.26
2024-02-16T12:27:44.290Z,65.64
2024-02-16T12:28:44.240Z,66.12
2024-02-16T12:29:44.204Z,63.32
2024-02-16T12:30:44.314Z,65.08
2024-02-16T12:31:44.232Z,65.35
2024-02-16T12:32:44.387Z,65.80
2024-02-16T12:33:44.473Z,65.20
2024-02-16T12:34:44.352Z,65.76
2024-02-16T12:35:44.282Z,65.96
2024-02-16T12:36:47.447Z,65.18
2024-02-16T12:37:45.221Z,65.26
2024-02-16T12:39:44.385Z,65.39
2024-02-16T12:40:44.224Z,65.98
2024-02-16T12:41:44.391Z,64.10
2024-02-16T12:42:45.390Z,65.95
2024-02-16T12:43:44.273Z,65.38
2024-02-16T12:44:44.306Z,66.14
2024-02-16T12:45:44.348Z,65.16
2024-02-16T12:46:44.281Z,66.04
2024-02-16T12:47:44.333Z,66.12
2024-02-16T12:48:47.481Z,66.08
2024-02-16T12:49:45.359Z,66.19
2024-02-16T12:50:44.310Z,66.32
2024-02-16T12:51:44.366Z,66.17
2024-02-16T12:52:50.856Z,66.07
2024-02-16T12:53:45.245Z,66.16
2024-02-16T12:54:46.110Z,66.20
2024-02-16T12:55:44.262Z,65.86